createdAt,value
2023-02-11T00:00:25.545Z,93.70
2023-02-11T00:03:53.715Z,93.80
2023-02-11T00:07:17.354Z,93.80
2023-02-11T00:10:40.856Z,93.90
2023-02-11T00:14:07.711Z,93.80
2023-02-11T00:17:31.303Z,94.00
2023-02-11T00:20:56.796Z,94.10
2023-02-11T00:24:20.397Z,94.10
2023-02-11T00:27:44.449Z,94.20
2023-02-11T00:31:14.947Z,94.30
2023-02-11T00:34:39.456Z,94.40
2023-02-11T00:38:06.700Z,94.60
2023-02-11T00:41:30.707Z,94.70
2023-02-11T00:44:56.454Z,94.90
2023-02-11T00:48:20.436Z,95.10
2023-02-11T00:51:44.429Z,95.30
2023-02-11T00:55:17.541Z,95.60
2023-02-11T00:58:41.120Z,95.90
2023-02-11T01:02:05.479Z,96.10
2023-02-11T01:05:29.773Z,96.10
2023-02-11T01:08:54.507Z,96.20
2023-02-11T01:12:19.403Z,96.40
2023-02-11T01:15:43.475Z,96.60
2023-02-11T01:19:09.799Z,96.70
2023-02-11T01:22:37.544Z,96.80
2023-02-11T01:26:01.136Z,96.90
2023-02-11T01:29:27.761Z,97.10
2023-02-11T01:32:52.447Z,97.20
2023-02-11T01:36:16.432Z,97.40
2023-02-11T01:39:40.787Z,97.50
2023-02-11T01:43:06.584Z,97.70
2023-02-11T01:46:37.402Z,97.90
2023-02-11T01:50:03.906Z,98.00
2023-02-11T01:53:48.013Z,98.00
2023-02-11T01:57:30.481Z,98.10
2023-02-11T02:00:56.766Z,98.20
2023-02-11T02:04:27.454Z,98.20
2023-02-11T02:08:07.723Z,98.30
2023-02-11T02:11:31.584Z,98.30
2023-02-11T02:15:12.675Z,98.30
2023-02-11T02:18:43.908Z,98.20
2023-02-11T02:22:45.397Z,98.30
2023-02-11T02:26:39.760Z,98.30
2023-02-11T02:30:45.661Z,98.30
2023-02-11T02:34:18.491Z,98.30
2023-02-11T02:37:52.846Z,98.40
2023-02-11T02:41:19.400Z,98.30
2023-02-11T02:44:48.446Z,98.30
2023-02-11T02:48:31.687Z,98.30
2023-02-11T02:52:28.868Z,98.30
2023-02-11T02:56:02.666Z,98.30
2023-02-11T02:59:42.515Z,98.30
2023-02-11T03:03:19.822Z,98.40
2023-02-11T03:06:51.493Z,98.50
2023-02-11T03:10:20.390Z,98.60
2023-02-11T03:13:46.189Z,98.70
2023-02-11T03:17:11.295Z,99.00
2023-02-11T03:20:40.088Z,99.10
2023-02-11T03:24:08.541Z,99.20
2023-02-11T03:27:40.536Z,99.30
2023-02-11T03:31:13.590Z,99.30
2023-02-11T03:34:43.859Z,99.40
2023-02-11T03:38:13.012Z,99.50
2023-02-11T03:41:37.559Z,99.40
2023-02-11T03:45:07.113Z,99.50
2023-02-11T03:48:34.358Z,99.60
2023-02-11T03:51:59.854Z,99.50
2023-02-11T03:55:26.795Z,99.60
2023-02-11T03:58:50.438Z,99.60
2023-02-11T04:02:17.878Z,99.60
2023-02-11T04:05:41.728Z,99.60
2023-02-11T04:09:05.983Z,99.60
2023-02-11T04:12:31.988Z,99.50
2023-02-11T04:15:55.606Z,99.30
2023-02-11T04:19:20.952Z,99.40
2023-02-11T04:22:47.468Z,99.30
2023-02-11T04:26:11.628Z,99.20
2023-02-11T04:29:35.798Z,98.90
2023-02-11T04:32:59.636Z,98.80
2023-02-11T04:36:25.173Z,98.80
2023-02-11T04:39:48.761Z,98.70
2023-02-11T04:43:12.689Z,98.60
2023-02-11T04:46:36.792Z,98.40
2023-02-11T04:50:00.726Z,98.30
2023-02-11T04:53:26.072Z,98.30
2023-02-11T04:56:51.012Z,98.10
2023-02-11T05:00:15.877Z,98.00
2023-02-11T05:03:39.968Z,97.90
2023-02-11T05:07:06.009Z,97.90
2023-02-11T05:10:31.070Z,97.80
2023-02-11T05:13:54.645Z,97.80
2023-02-11T05:17:21.170Z,97.70
2023-02-11T05:20:45.270Z,97.60
2023-02-11T05:24:10.266Z,97.50
2023-02-11T05:27:36.525Z,97.40
2023-02-11T05:31:01.310Z,97.40
2023-02-11T05:34:25.773Z,97.40
2023-02-11T05:37:49.801Z,97.30
2023-02-11T05:41:13.876Z,97.20
2023-02-11T05:44:39.325Z,97.20
2023-02-11T05:48:03.740Z,97.20
2023-02-11T05:51:27.812Z,97.20
2023-02-11T05:54:51.783Z,97.20
2023-02-11T05:58:15.792Z,97.20
2023-02-11T06:01:41.162Z,97.10
2023-02-11T06:05:04.887Z,97.20
2023-02-11T06:08:28.896Z,97.20
2023-02-11T06:11:55.107Z,97.20
2023-02-11T06:15:18.942Z,97.20
2023-02-11T06:18:44.255Z,97.20
2023-02-11T06:22:12.744Z,97.20
2023-02-11T06:25:38.890Z,97.20
2023-02-11T06:29:03.358Z,97.10
2023-02-11T06:32:45.707Z,97.10
2023-02-11T06:36:17.383Z,97.20
2023-02-11T06:39:41.875Z,97.10
2023-02-11T06:43:07.313Z,97.10
2023-02-11T06:46:32.030Z,97.00
2023-02-11T06:49:55.796Z,97.00
2023-02-11T06:53:28.649Z,96.70
2023-02-11T06:56:52.864Z,96.70
2023-02-11T07:00:19.878Z,96.80
2023-02-11T07:03:45.708Z,96.90
2023-02-11T07:07:12.374Z,96.90
2023-02-11T07:10:38.345Z,97.00
2023-02-11T07:14:03.894Z,97.00
2023-02-11T07:17:27.493Z,97.00
2023-02-11T07:20:51.876Z,96.90
2023-02-11T07:24:15.925Z,97.10
2023-02-11T07:27:41.454Z,97.10
2023-02-11T07:31:08.067Z,97.00
2023-02-11T07:34:31.988Z,97.00
2023-02-11T07:37:55.676Z,97.10
2023-02-11T07:41:22.253Z,97.10
2023-02-11T07:44:50.331Z,97.20
2023-02-11T07:48:14.946Z,97.10
2023-02-11T07:51:41.094Z,97.10
2023-02-11T07:55:14.045Z,97.30
2023-02-11T07:58:38.668Z,97.20
2023-02-11T08:02:04.401Z,97.30
2023-02-11T08:05:31.022Z,97.50
2023-02-11T08:08:55.049Z,97.30
2023-02-11T08:12:19.012Z,97.30
2023-02-11T08:15:42.926Z,97.30
2023-02-11T08:19:11.897Z,97.30
2023-02-11T08:22:36.421Z,97.30
2023-02-11T08:26:02.957Z,97.30
2023-02-11T08:29:27.020Z,97.40
2023-02-11T08:32:50.940Z,97.50
2023-02-11T08:36:18.257Z,97.50
2023-02-11T08:39:41.899Z,97.50
2023-02-11T08:43:08.153Z,97.50
2023-02-11T08:46:36.107Z,97.90
2023-02-11T08:49:59.930Z,97.50
2023-02-11T08:53:25.375Z,98.00
2023-02-11T08:56:52.586Z,97.70
2023-02-11T09:00:17.695Z,97.80
2023-02-11T09:03:41.398Z,97.90
2023-02-11T09:07:05.083Z,97.90
2023-02-11T09:10:29.978Z,97.90
2023-02-11T09:13:54.590Z,98.20
2023-02-11T09:17:18.295Z,97.90
2023-02-11T09:20:44.164Z,98.00
2023-02-11T09:24:07.912Z,97.90
2023-02-11T09:27:33.048Z,97.90
2023-02-11T09:30:56.746Z,97.80
2023-02-11T09:34:20.341Z,97.90
2023-02-11T09:37:43.982Z,97.90
2023-02-11T09:41:08.460Z,97.90
2023-02-11T09:44:36.756Z,97.80
2023-02-11T09:48:06.223Z,97.80
2023-02-11T09:51:37.390Z,97.80
2023-02-11T09:55:03.003Z,97.90
2023-02-11T09:58:29.308Z,97.90
2023-02-11T10:02:00.295Z,98.00
2023-02-11T10:05:38.033Z,98.00
2023-02-11T10:09:12.822Z,97.90
2023-02-11T10:13:02.971Z,97.90
2023-02-11T10:16:40.804Z,97.90
2023-02-11T10:20:20.335Z,98.10
2023-02-11T10:23:51.688Z,98.10
2023-02-11T10:27:20.249Z,98.10
2023-02-11T10:30:50.919Z,98.20
2023-02-11T10:34:15.859Z,98.50
2023-02-11T10:37:43.537Z,98.60
2023-02-11T10:41:10.727Z,98.70
2023-02-11T10:44:38.516Z,98.90
2023-02-11T10:48:02.357Z,98.80
2023-02-11T10:51:28.350Z,99.00
2023-02-11T10:55:02.989Z,99.30
2023-02-11T10:58:29.791Z,99.50
2023-02-11T11:01:59.007Z,99.50
2023-02-11T11:05:29.619Z,99.40
2023-02-11T11:08:53.316Z,99.40
2023-02-11T11:12:47.538Z,99.30
2023-02-11T11:16:23.088Z,99.50
2023-02-11T11:19:46.807Z,99.70
2023-02-11T11:23:19.520Z,99.60
2023-02-11T11:26:45.608Z,99.60
2023-02-11T11:30:17.503Z,99.50
2023-02-11T11:33:43.805Z,99.40
2023-02-11T11:37:13.271Z,99.40
2023-02-11T11:40:37.492Z,99.40
2023-02-11T11:44:05.186Z,99.50
2023-02-11T11:47:36.858Z,99.40
2023-02-11T11:51:03.054Z,99.50
2023-02-11T11:54:29.128Z,99.40
2023-02-11T11:57:52.686Z,99.20
2023-02-11T12:01:29.354Z,99.30
2023-02-11T12:05:04.808Z,99.30
2023-02-11T12:08:37.724Z,99.10
2023-02-11T12:12:12.723Z,99.00
2023-02-11T12:15:42.331Z,99.10
2023-02-11T12:19:32.853Z,99.00
2023-02-11T12:23:22.774Z,98.90
2023-02-11T12:26:52.766Z,98.90
2023-02-11T12:30:35.296Z,98.80
2023-02-11T12:34:19.979Z,98.70
2023-02-11T12:38:08.750Z,98.20
2023-02-11T12:42:05.168Z,98.50
2023-02-11T12:45:42.848Z,97.90
2023-02-11T12:49:22.625Z,97.90
2023-02-11T12:52:59.405Z,98.00
2023-02-11T12:56:29.190Z,97.80
2023-02-11T12:59:59.713Z,98.00
2023-02-11T13:03:29.537Z,97.70
2023-02-11T13:06:58.635Z,97.70
2023-02-11T13:10:30.871Z,97.40
2023-02-11T13:13:58.435Z,97.60
2023-02-11T13:17:31.471Z,97.20
2023-02-11T13:21:00.271Z,97.20
2023-02-11T13:24:30.316Z,97.20
2023-02-11T13:28:02.174Z,97.10
2023-02-11T13:31:28.614Z,96.90
2023-02-11T13:35:04.463Z,96.90
2023-02-11T13:38:35.189Z,97.10
2023-02-11T13:42:04.722Z,97.20
2023-02-11T13:45:32.517Z,97.00
2023-02-11T13:48:59.687Z,97.00
2023-02-11T13:52:44.531Z,96.90
2023-02-11T13:56:13.013Z,96.90
2023-02-11T13:59:52.398Z,96.70
2023-02-11T14:03:52.169Z,96.60
2023-02-11T14:07:56.810Z,96.60
2023-02-11T14:11:50.935Z,96.40
2023-02-11T14:15:24.096Z,96.50
2023-02-11T14:19:03.466Z,96.60
2023-02-11T14:22:30.028Z,96.60
2023-02-11T14:26:11.510Z,96.60
2023-02-11T14:29:42.973Z,96.50
2023-02-11T14:33:43.697Z,96.40
2023-02-11T14:37:21.457Z,96.50
2023-02-11T14:40:55.076Z,96.40
2023-02-11T14:44:23.093Z,96.70
2023-02-11T14:47:59.764Z,96.40
2023-02-11T14:51:27.866Z,96.20
2023-02-11T14:54:53.282Z,96.10
2023-02-11T14:58:20.889Z,96.10
2023-02-11T15:01:50.680Z,96.10
2023-02-11T15:05:21.250Z,96.50
2023-02-11T15:08:48.272Z,96.20
2023-02-11T15:12:19.987Z,96.30
2023-02-11T15:15:46.549Z,96.30
2023-02-11T15:19:22.091Z,96.30
2023-02-11T15:22:48.442Z,96.20
2023-02-11T15:26:15.656Z,96.40
2023-02-11T15:29:41.432Z,96.30
2023-02-11T15:33:06.794Z,96.30
2023-02-11T15:36:33.060Z,96.30
2023-02-11T15:40:10.698Z,96.30
2023-02-11T15:43:45.621Z,96.40
2023-02-11T15:47:11.351Z,96.50
2023-02-11T15:50:37.735Z,96.60
2023-02-11T15:54:03.589Z,96.50
2023-02-11T15:57:29.325Z,96.60
2023-02-11T16:00:59.593Z,96.50
2023-02-11T16:04:26.253Z,96.50
2023-02-11T16:07:51.700Z,96.60
2023-02-11T16:11:27.301Z,96.60
2023-02-11T16:14:52.310Z,96.70
2023-02-11T16:18:39.781Z,96.60
2023-02-11T16:22:09.835Z,96.60
2023-02-11T16:25:35.629Z,96.60
2023-02-11T16:29:08.849Z,96.60
2023-02-11T16:32:33.921Z,96.50
2023-02-11T16:35:57.732Z,96.60
2023-02-11T16:39:22.454Z,96.60
2023-02-11T16:42:46.143Z,96.70
2023-02-11T16:46:12.486Z,96.70
2023-02-11T16:49:39.221Z,96.60
2023-02-11T16:53:06.135Z,96.60
2023-02-11T16:56:30.098Z,96.60
2023-02-11T16:59:53.953Z,96.70
2023-02-11T17:03:22.357Z,96.60
2023-02-11T17:06:48.012Z,96.60
2023-02-11T17:10:15.658Z,96.60
2023-02-11T17:13:39.454Z,96.60
2023-02-11T17:17:03.177Z,96.50
2023-02-11T17:20:27.161Z,96.60
2023-02-11T17:23:52.092Z,96.60
2023-02-11T17:27:16.075Z,96.60
2023-02-11T17:30:42.039Z,96.60
2023-02-11T17:34:05.614Z,96.60
2023-02-11T17:37:30.296Z,96.70
2023-02-11T17:41:02.767Z,96.70
2023-02-11T17:44:26.373Z,96.70
2023-02-11T17:47:50.108Z,96.60
2023-02-11T17:51:25.069Z,96.60
2023-02-11T17:54:48.857Z,96.60
2023-02-11T17:58:13.896Z,96.70
2023-02-11T18:01:39.294Z,97.00
2023-02-11T18:05:03.105Z,96.70
2023-02-11T18:08:26.752Z,97.10
2023-02-11T18:11:52.362Z,96.60
2023-02-11T18:15:17.485Z,96.70
2023-02-11T18:18:41.056Z,96.70
2023-02-11T18:22:04.793Z,96.80
2023-02-11T18:25:29.835Z,96.80
2023-02-11T18:28:53.555Z,96.80
2023-02-11T18:32:18.452Z,96.80
2023-02-11T18:35:43.035Z,96.90
2023-02-11T18:39:06.698Z,96.80
2023-02-11T18:42:30.246Z,96.90
2023-02-11T18:45:54.147Z,97.00
2023-02-11T18:49:20.483Z,97.10
2023-02-11T18:52:44.693Z,97.10
2023-02-11T18:56:10.622Z,97.10
2023-02-11T18:59:34.681Z,97.10
2023-02-11T19:02:58.841Z,97.10
2023-02-11T19:06:30.293Z,97.10
2023-02-11T19:09:54.132Z,97.20
2023-02-11T19:13:20.237Z,97.30
2023-02-11T19:16:45.978Z,97.30
2023-02-11T19:20:11.731Z,97.30
2023-02-11T19:23:37.968Z,97.60
2023-02-11T19:27:04.792Z,97.10
2023-02-11T19:30:28.920Z,97.20
2023-02-11T19:33:52.679Z,97.20
2023-02-11T19:37:19.056Z,97.20
2023-02-11T19:40:45.451Z,97.20
2023-02-11T19:44:09.463Z,97.20
2023-02-11T19:47:33.019Z,97.20
2023-02-11T19:50:56.655Z,97.20
2023-02-11T19:54:20.866Z,97.10
2023-02-11T19:57:45.882Z,97.20
2023-02-11T20:01:11.386Z,97.20
2023-02-11T20:04:34.991Z,97.10
2023-02-11T20:07:58.680Z,97.30
2023-02-11T20:11:22.896Z,97.30
2023-02-11T20:14:48.122Z,97.30
2023-02-11T20:18:11.752Z,97.30
2023-02-11T20:21:35.726Z,97.30
2023-02-11T20:25:02.027Z,97.50
2023-02-11T20:28:25.955Z,97.60
2023-02-11T20:31:54.040Z,97.70
2023-02-11T20:35:17.896Z,97.70
2023-02-11T20:38:44.881Z,97.80
2023-02-11T20:42:11.477Z,97.70
2023-02-11T20:45:36.529Z,97.80
2023-02-11T20:49:05.771Z,97.80
2023-02-11T20:52:29.299Z,97.80
2023-02-11T20:55:53.935Z,97.80
2023-02-11T20:59:18.741Z,97.70
2023-02-11T21:02:43.055Z,97.60
2023-02-11T21:06:08.413Z,97.50
2023-02-11T21:09:34.300Z,97.50
2023-02-11T21:13:00.359Z,97.40
2023-02-11T21:16:24.568Z,97.40
2023-02-11T21:19:48.224Z,97.30
2023-02-11T21:23:13.177Z,97.30
2023-02-11T21:26:37.994Z,97.20
2023-02-11T21:30:02.076Z,97.10
2023-02-11T21:33:27.844Z,97.20
2023-02-11T21:36:52.318Z,97.20
2023-02-11T21:40:17.462Z,97.30
2023-02-11T21:43:41.046Z,97.30
2023-02-11T21:47:04.655Z,97.20
2023-02-11T21:50:28.719Z,97.30
2023-02-11T21:53:55.376Z,97.10
2023-02-11T21:57:20.266Z,97.20
2023-02-11T22:00:43.853Z,97.20
2023-02-11T22:04:07.461Z,97.10
2023-02-11T22:07:30.982Z,97.20
2023-02-11T22:10:54.593Z,97.30
2023-02-11T22:14:19.527Z,97.30
2023-02-11T22:17:43.179Z,97.30
2023-02-11T22:21:08.504Z,97.20
2023-02-11T22:24:32.257Z,97.30
2023-02-11T22:27:55.795Z,97.60
2023-02-11T22:31:23.883Z,97.30
2023-02-11T22:34:47.505Z,97.40
2023-02-11T22:38:11.457Z,97.40
2023-02-11T22:41:35.165Z,97.40
2023-02-11T22:44:58.747Z,97.40
2023-02-11T22:48:23.678Z,97.30
2023-02-11T22:51:47.827Z,97.40
2023-02-11T22:55:11.402Z,97.30
2023-02-11T22:58:35.580Z,97.10
2023-02-11T23:01:59.232Z,97.20
2023-02-11T23:05:24.997Z,97.20
2023-02-11T23:08:48.885Z,97.10
2023-02-11T23:12:12.922Z,97.10
2023-02-11T23:15:40.723Z,97.10
2023-02-11T23:19:07.113Z,97.20
2023-02-11T23:22:32.578Z,97.20
2023-02-11T23:25:56.629Z,97.20
2023-02-11T23:29:20.412Z,97.10
2023-02-11T23:32:43.949Z,97.10
2023-02-11T23:36:08.515Z,97.20
2023-02-11T23:39:33.815Z,97.30
2023-02-11T23:47:30.869Z,97.30
2023-02-11T23:51:30.368Z,97.40
2023-02-11T23:54:55.272Z,97.50
2023-02-11T23:58:18.871Z,97.40
